createdAt,value
2022-09-24T00:02:00.863Z,11.77
2022-09-24T00:04:37.344Z,11.76
2022-09-24T00:07:10.666Z,11.74
2022-09-24T00:09:44.244Z,11.70
2022-09-24T00:12:18.436Z,11.66
2022-09-24T00:14:51.970Z,11.62
2022-09-24T00:17:25.777Z,11.58
2022-09-24T00:19:59.220Z,11.54
2022-09-24T00:22:38.775Z,11.50
2022-09-24T00:25:30.817Z,11.47
2022-09-24T00:28:04.863Z,11.47
2022-09-24T00:30:49.120Z,11.47
2022-09-24T00:33:22.550Z,11.44
2022-09-24T00:36:02.577Z,11.42
2022-09-24T00:38:36.215Z,11.41
2022-09-24T00:41:10.232Z,11.42
2022-09-24T00:43:44.409Z,11.38
2022-09-24T00:46:23.627Z,11.34
2022-09-24T00:49:19.049Z,11.31
2022-09-24T00:51:54.459Z,11.30
2022-09-24T00:54:31.046Z,11.28
2022-09-24T00:57:12.156Z,11.27
2022-09-24T00:59:48.312Z,11.24
2022-09-24T01:02:22.432Z,11.25
2022-09-24T01:04:56.919Z,11.27
2022-09-24T01:07:30.662Z,11.26
2022-09-24T01:10:05.093Z,11.27
2022-09-24T01:12:47.585Z,11.26
2022-09-24T01:15:28.216Z,11.25
2022-09-24T01:18:16.580Z,11.20
2022-09-24T01:21:07.174Z,11.19
2022-09-24T01:24:08.009Z,11.16
2022-09-24T01:26:57.605Z,11.14
2022-09-24T01:29:42.401Z,11.12
2022-09-24T01:32:22.327Z,11.08
2022-09-24T01:35:01.770Z,11.07
2022-09-24T01:37:39.956Z,11.07
2022-09-24T01:40:19.328Z,11.06
2022-09-24T01:43:15.071Z,11.03
2022-09-24T01:45:51.734Z,10.98
2022-09-24T01:48:25.094Z,10.93
2022-09-24T01:51:10.218Z,10.88
2022-09-24T01:53:48.253Z,10.84
2022-09-24T01:56:30.332Z,10.79
2022-09-24T01:59:08.485Z,10.75
2022-09-24T02:01:50.847Z,10.74
2022-09-24T02:04:27.319Z,10.71
2022-09-24T02:07:05.099Z,10.69
2022-09-24T02:09:41.165Z,10.69
2022-09-24T02:12:18.287Z,10.67
2022-09-24T02:14:55.928Z,10.67
2022-09-24T02:17:34.098Z,10.66
2022-09-24T02:20:12.456Z,10.62
2022-09-24T02:22:48.849Z,10.61
2022-09-24T02:25:27.396Z,10.58
2022-09-24T02:28:08.570Z,10.55
2022-09-24T02:30:51.358Z,10.52
2022-09-24T02:33:47.523Z,10.54
2022-09-24T02:36:25.375Z,10.57
2022-09-24T02:38:59.603Z,10.60
2022-09-24T02:41:34.116Z,10.63
2022-09-24T02:44:07.697Z,10.63
2022-09-24T02:46:41.649Z,10.61
2022-09-24T02:49:16.083Z,10.58
2022-09-24T02:51:52.731Z,10.56
2022-09-24T02:54:38.292Z,10.54
2022-09-24T02:57:12.299Z,10.53
2022-09-24T02:59:45.868Z,10.50
2022-09-24T03:02:19.660Z,10.47
2022-09-24T03:04:57.092Z,10.43
2022-09-24T03:07:44.259Z,10.42
2022-09-24T03:10:18.142Z,10.42
2022-09-24T03:12:52.108Z,10.41
2022-09-24T03:15:30.059Z,10.40
2022-09-24T03:18:03.751Z,10.41
2022-09-24T03:20:40.108Z,10.39
2022-09-24T03:23:17.581Z,10.39
2022-09-24T03:25:51.261Z,10.37
2022-09-24T03:28:25.365Z,10.35
2022-09-24T03:31:02.079Z,10.32
2022-09-24T03:33:37.963Z,10.31
2022-09-24T03:36:13.895Z,10.32
2022-09-24T03:38:49.236Z,10.31
2022-09-24T03:41:33.668Z,10.32
2022-09-24T03:44:07.432Z,10.30
2022-09-24T03:46:41.432Z,10.28
2022-09-24T03:49:26.110Z,10.23
2022-09-24T03:51:59.463Z,10.20
2022-09-24T03:54:35.910Z,10.17
2022-09-24T03:57:20.951Z,10.11
2022-09-24T03:59:54.509Z,10.08
2022-09-24T04:02:41.356Z,10.05
2022-09-24T04:05:26.318Z,10.00
2022-09-24T04:07:59.846Z,9.98
2022-09-24T04:10:34.318Z,9.99
2022-09-24T04:13:07.817Z,10.01
2022-09-24T04:15:41.392Z,10.01
2022-09-24T04:18:18.247Z,9.99
2022-09-24T04:20:51.938Z,9.99
2022-09-24T04:23:25.443Z,9.97
2022-09-24T04:26:02.606Z,9.96
2022-09-24T04:28:36.313Z,9.95
2022-09-24T04:31:09.826Z,9.95
2022-09-24T04:33:47.111Z,9.95
2022-09-24T04:36:21.458Z,9.92
2022-09-24T04:39:16.006Z,9.91
2022-09-24T04:41:49.705Z,9.92
2022-09-24T04:44:24.053Z,9.96
2022-09-24T04:47:03.286Z,9.98
2022-09-24T04:49:36.808Z,9.99
2022-09-24T04:52:10.800Z,10.00
2022-09-24T04:54:47.928Z,10.02
2022-09-24T04:57:22.289Z,10.04
2022-09-24T05:00:07.658Z,10.06
2022-09-24T05:02:44.630Z,10.06
2022-09-24T05:05:18.713Z,10.07
2022-09-24T05:07:53.144Z,10.09
2022-09-24T05:10:36.974Z,10.16
2022-09-24T05:13:10.461Z,10.24
2022-09-24T05:15:44.338Z,10.31
2022-09-24T05:18:18.622Z,10.36
2022-09-24T05:20:54.797Z,10.41
2022-09-24T05:23:28.262Z,10.46
2022-09-24T05:26:19.657Z,10.54
2022-09-24T05:28:54.137Z,10.72
2022-09-24T05:31:27.779Z,10.92
2022-09-24T05:34:01.671Z,11.11
2022-09-24T05:36:55.575Z,11.28
2022-09-24T05:39:33.657Z,11.38
2022-09-24T05:42:08.193Z,11.48
2022-09-24T05:44:48.528Z,11.60
2022-09-24T05:47:28.960Z,11.64
2022-09-24T05:50:23.193Z,11.69
2022-09-24T05:53:00.699Z,11.73
2022-09-24T05:55:34.135Z,11.77
2022-09-24T05:58:12.893Z,11.83
2022-09-24T06:00:47.058Z,11.91
2022-09-24T06:03:30.008Z,11.98
2022-09-24T06:06:03.449Z,12.01
2022-09-24T06:08:47.889Z,12.06
2022-09-24T06:11:22.134Z,12.14
2022-09-24T06:13:58.406Z,12.26
2022-09-24T06:16:33.485Z,12.38
2022-09-24T06:19:07.356Z,12.55
2022-09-24T06:21:41.300Z,13.00
2022-09-24T06:24:18.564Z,14.14
2022-09-24T06:27:00.925Z,15.12
2022-09-24T06:29:34.191Z,15.20
2022-09-24T06:32:08.430Z,15.07
2022-09-24T06:34:41.922Z,14.91
2022-09-24T06:37:15.292Z,14.86
2022-09-24T06:39:49.097Z,14.98
2022-09-24T06:42:33.928Z,15.45
2022-09-24T06:45:08.395Z,15.90
2022-09-24T06:47:41.753Z,16.27
2022-09-24T06:50:15.429Z,16.57
2022-09-24T06:52:51.558Z,16.67
2022-09-24T06:55:25.894Z,16.69
2022-09-24T06:58:21.532Z,16.66
2022-09-24T07:00:59.701Z,16.59
2022-09-24T07:03:35.290Z,16.56
2022-09-24T07:06:49.388Z,16.54
2022-09-24T07:09:36.595Z,16.51
2022-09-24T07:12:09.890Z,16.60
2022-09-24T07:14:43.245Z,16.76
2022-09-24T07:17:17.233Z,16.80
2022-09-24T07:20:12.311Z,16.69
2022-09-24T07:22:45.884Z,16.52
2022-09-24T07:25:19.897Z,16.35
2022-09-24T07:27:54.167Z,16.26
2022-09-24T07:30:27.993Z,16.23
2022-09-24T07:33:01.549Z,16.41
2022-09-24T07:35:35.576Z,16.87
2022-09-24T07:38:12.521Z,17.89
2022-09-24T07:40:46.585Z,19.60
2022-09-24T07:43:19.715Z,21.04
2022-09-24T07:45:56.165Z,21.97
2022-09-24T07:48:29.748Z,22.87
2022-09-24T07:51:02.847Z,24.10
2022-09-24T07:53:36.074Z,24.44
2022-09-24T07:56:09.929Z,24.10
2022-09-24T07:58:43.070Z,23.42
2022-09-24T08:01:16.772Z,22.82
2022-09-24T08:03:52.709Z,22.35
2022-09-24T08:06:26.266Z,21.96
2022-09-24T08:08:59.622Z,21.59
2022-09-24T08:11:36.398Z,21.35
2022-09-24T08:14:09.696Z,21.14
2022-09-24T08:16:46.261Z,20.96
2022-09-24T08:19:19.373Z,20.80
2022-09-24T08:21:52.385Z,20.64
2022-09-24T08:24:25.494Z,20.50
2022-09-24T08:26:59.699Z,20.36
2022-09-24T08:29:41.987Z,20.29
2022-09-24T08:32:15.085Z,20.20
2022-09-24T08:34:48.420Z,20.10
2022-09-24T08:37:21.738Z,19.97
2022-09-24T08:39:54.819Z,19.80
2022-09-24T08:42:43.672Z,19.67
2022-09-24T08:45:35.892Z,19.51
2022-09-24T08:48:19.736Z,19.37
2022-09-24T08:51:01.246Z,19.18
2022-09-24T08:53:47.183Z,19.13
2022-09-24T08:56:25.457Z,19.09
2022-09-24T08:59:03.612Z,19.06
2022-09-24T09:01:48.206Z,19.01
2022-09-24T09:04:30.477Z,18.92
2022-09-24T09:07:16.800Z,18.88
2022-09-24T09:09:56.203Z,18.88
2022-09-24T09:12:37.188Z,18.89
2022-09-24T09:15:16.560Z,18.85
2022-09-24T09:17:54.035Z,18.78
2022-09-24T09:20:31.753Z,18.76
2022-09-24T09:23:15.016Z,18.78
2022-09-24T09:25:54.150Z,18.80
2022-09-24T09:28:33.310Z,18.78
2022-09-24T09:31:19.565Z,18.80
2022-09-24T09:34:06.487Z,18.86
2022-09-24T09:36:57.446Z,18.92
2022-09-24T09:39:41.919Z,19.17
2022-09-24T09:42:34.710Z,19.68
2022-09-24T09:45:28.062Z,20.28
2022-09-24T09:48:03.486Z,20.96
2022-09-24T09:50:42.295Z,21.69
2022-09-24T09:53:26.811Z,22.32
2022-09-24T09:56:03.299Z,22.59
2022-09-24T09:58:38.585Z,22.75
2022-09-24T10:01:14.191Z,22.75
2022-09-24T10:03:52.678Z,22.56
2022-09-24T10:06:30.438Z,22.33
2022-09-24T10:09:10.376Z,22.13
2022-09-24T10:11:43.850Z,21.72
2022-09-24T10:14:21.060Z,21.43
2022-09-24T10:16:56.616Z,20.99
2022-09-24T10:19:31.903Z,20.63
2022-09-24T10:22:16.570Z,20.45
2022-09-24T10:24:50.604Z,20.16
2022-09-24T10:27:32.542Z,19.94
2022-09-24T10:30:33.669Z,19.80
2022-09-24T10:33:09.180Z,19.75
2022-09-24T10:35:42.280Z,19.76
2022-09-24T10:38:21.143Z,19.66
2022-09-24T10:40:54.785Z,19.47
2022-09-24T10:43:28.621Z,19.53
2022-09-24T10:46:22.148Z,19.75
2022-09-24T10:49:07.893Z,19.99
2022-09-24T10:51:54.214Z,19.97
2022-09-24T10:54:50.129Z,19.89
2022-09-24T10:57:32.732Z,19.83
2022-09-24T11:00:14.925Z,19.82
2022-09-24T11:03:10.101Z,19.98
2022-09-24T11:05:47.437Z,20.18
2022-09-24T11:08:31.997Z,20.27
2022-09-24T11:11:32.254Z,20.23
2022-09-24T11:14:21.130Z,20.21
2022-09-24T11:17:20.439Z,20.23
2022-09-24T11:20:28.806Z,20.54
2022-09-24T11:23:25.284Z,20.93
2022-09-24T11:26:08.198Z,21.20
2022-09-24T11:29:03.894Z,21.20
2022-09-24T11:31:50.317Z,21.02
2022-09-24T11:34:43.585Z,20.82
2022-09-24T11:37:29.700Z,20.65
2022-09-24T11:40:23.140Z,20.60
2022-09-24T11:43:10.103Z,20.59
2022-09-24T11:45:54.466Z,20.56
2022-09-24T11:49:04.523Z,20.50
2022-09-24T11:51:50.960Z,20.63
2022-09-24T11:54:32.772Z,20.83
2022-09-24T11:57:11.744Z,20.94
2022-09-24T11:59:54.886Z,21.02
2022-09-24T12:02:38.567Z,20.90
2022-09-24T12:05:20.296Z,20.95
2022-09-24T12:07:59.336Z,21.08
2022-09-24T12:10:38.905Z,21.10
2022-09-24T12:13:20.311Z,20.94
2022-09-24T12:15:57.985Z,21.04
2022-09-24T12:18:35.376Z,21.10
2022-09-24T12:21:23.739Z,20.92
2022-09-24T12:24:06.941Z,20.70
2022-09-24T12:26:43.585Z,20.55
2022-09-24T12:29:52.548Z,20.43
2022-09-24T12:32:50.909Z,20.24
2022-09-24T12:35:43.271Z,20.13
2022-09-24T12:38:21.106Z,19.96
2022-09-24T12:41:28.439Z,19.81
2022-09-24T12:44:18.368Z,19.80
2022-09-24T12:46:57.940Z,19.90
2022-09-24T12:49:35.975Z,19.92
2022-09-24T12:52:20.812Z,19.77
2022-09-24T12:54:59.351Z,19.73
2022-09-24T12:57:39.303Z,19.65
2022-09-24T13:00:42.644Z,19.52
2022-09-24T13:03:35.243Z,19.29
2022-09-24T13:06:24.752Z,19.15
2022-09-24T13:08:57.743Z,19.02
2022-09-24T13:11:33.885Z,18.97
2022-09-24T13:14:23.291Z,18.95
2022-09-24T13:17:00.154Z,18.90
2022-09-24T13:19:41.270Z,18.88
2022-09-24T13:22:27.836Z,18.83
2022-09-24T13:25:25.030Z,18.83
2022-09-24T13:28:21.254Z,18.79
2022-09-24T13:31:01.161Z,18.71
2022-09-24T13:33:42.366Z,18.68
2022-09-24T13:36:19.097Z,18.62
2022-09-24T13:39:00.112Z,18.47
2022-09-24T13:41:43.893Z,18.44
2022-09-24T13:44:22.826Z,18.47
2022-09-24T13:47:01.668Z,18.52
2022-09-24T13:49:36.622Z,18.54
2022-09-24T13:52:18.546Z,18.48
2022-09-24T13:54:56.931Z,18.46
2022-09-24T13:57:31.910Z,18.44
2022-09-24T14:00:24.727Z,18.43
2022-09-24T14:03:06.018Z,18.39
2022-09-24T14:05:40.698Z,18.33
2022-09-24T14:08:17.296Z,18.33
2022-09-24T14:10:51.514Z,18.35
2022-09-24T14:13:26.443Z,18.39
2022-09-24T14:16:09.274Z,18.41
2022-09-24T14:18:42.571Z,18.43
2022-09-24T14:21:21.185Z,18.43
2022-09-24T14:23:59.027Z,18.45
2022-09-24T14:26:36.467Z,18.43
2022-09-24T14:29:14.975Z,18.38
2022-09-24T14:31:52.909Z,18.31
2022-09-24T14:34:33.669Z,18.28
2022-09-24T14:37:17.692Z,18.27
2022-09-24T14:39:53.502Z,18.21
2022-09-24T14:42:31.046Z,18.16
2022-09-24T14:45:08.139Z,18.13
2022-09-24T14:47:42.045Z,18.11
2022-09-24T14:50:35.781Z,18.11
2022-09-24T14:53:23.060Z,18.02
2022-09-24T14:55:56.989Z,17.94
2022-09-24T14:58:37.890Z,17.90
2022-09-24T15:01:19.041Z,17.93
2022-09-24T15:03:56.431Z,17.95
2022-09-24T15:06:32.478Z,17.96
2022-09-24T15:09:08.214Z,17.93
2022-09-24T15:11:43.757Z,17.92
2022-09-24T15:14:28.132Z,17.91
2022-09-24T15:17:21.447Z,17.87
2022-09-24T15:19:58.072Z,17.81
2022-09-24T15:22:32.876Z,17.79
2022-09-24T15:25:07.436Z,17.79
2022-09-24T15:27:43.793Z,17.78
2022-09-24T15:30:22.189Z,17.76
2022-09-24T15:32:55.813Z,17.71
2022-09-24T15:35:29.665Z,17.65
2022-09-24T15:38:03.726Z,17.59
2022-09-24T15:40:38.494Z,17.54
2022-09-24T15:43:20.852Z,17.49
2022-09-24T15:45:54.964Z,17.42
2022-09-24T15:48:28.913Z,17.37
2022-09-24T15:51:10.949Z,17.31
2022-09-24T15:53:47.292Z,17.22
2022-09-24T15:56:21.083Z,17.12
2022-09-24T15:58:54.736Z,17.03
2022-09-24T16:01:28.255Z,16.95
2022-09-24T16:04:01.790Z,16.87
2022-09-24T16:06:36.974Z,16.79
2022-09-24T16:09:10.817Z,16.72
2022-09-24T16:11:45.053Z,16.65
2022-09-24T16:14:18.231Z,16.57
2022-09-24T16:16:51.879Z,16.51
2022-09-24T16:19:25.980Z,16.45
2022-09-24T16:21:59.992Z,16.39
2022-09-24T16:24:36.676Z,16.33
2022-09-24T16:27:10.318Z,16.27
2022-09-24T16:29:43.840Z,16.22
2022-09-24T16:32:17.481Z,16.18
2022-09-24T16:34:51.461Z,16.13
2022-09-24T16:37:25.351Z,16.07
2022-09-24T16:39:58.987Z,16.01
2022-09-24T16:42:32.545Z,15.96
2022-09-24T16:45:07.430Z,15.91
2022-09-24T16:47:42.004Z,15.86
2022-09-24T16:50:15.945Z,15.82
2022-09-24T16:52:50.788Z,15.76
2022-09-24T16:55:25.772Z,15.72
2022-09-24T16:57:59.351Z,15.68
2022-09-24T17:00:33.364Z,15.64
2022-09-24T17:03:07.029Z,15.60
2022-09-24T17:05:42.078Z,15.54
2022-09-24T17:08:15.391Z,15.50
2022-09-24T17:10:58.153Z,15.44
2022-09-24T17:13:34.170Z,15.38
2022-09-24T17:16:09.429Z,15.33
2022-09-24T17:18:42.690Z,15.28
2022-09-24T17:21:18.287Z,15.23
2022-09-24T17:23:52.194Z,15.19
2022-09-24T17:26:26.592Z,15.14
2022-09-24T17:28:59.706Z,15.09
2022-09-24T17:31:33.410Z,15.04
2022-09-24T17:34:09.728Z,14.99
2022-09-24T17:36:46.289Z,14.95
2022-09-24T17:39:21.194Z,14.89
2022-09-24T17:41:54.419Z,14.86
2022-09-24T17:44:28.310Z,14.81
2022-09-24T17:47:03.045Z,14.77
2022-09-24T17:49:36.441Z,14.75
2022-09-24T17:52:10.042Z,14.72
2022-09-24T17:54:48.441Z,14.68
2022-09-24T17:57:25.459Z,14.66
2022-09-24T17:59:59.359Z,14.63
2022-09-24T18:02:33.096Z,14.60
2022-09-24T18:05:09.296Z,14.56
2022-09-24T18:07:42.759Z,14.52
2022-09-24T18:10:17.529Z,14.48
2022-09-24T18:12:51.169Z,14.44
2022-09-24T18:15:26.977Z,14.39
2022-09-24T18:18:01.088Z,14.36
2022-09-24T18:20:37.862Z,14.32
2022-09-24T18:23:11.536Z,14.29
2022-09-24T18:25:48.201Z,14.27
2022-09-24T18:28:25.099Z,14.23
2022-09-24T18:31:07.073Z,14.21
2022-09-24T18:33:43.240Z,14.19
2022-09-24T18:36:19.291Z,14.14
2022-09-24T18:38:53.051Z,14.12
2022-09-24T18:41:37.321Z,14.10
2022-09-24T18:44:10.820Z,14.10
2022-09-24T18:46:44.048Z,14.10
2022-09-24T18:49:17.656Z,14.12
2022-09-24T18:51:54.926Z,14.15
2022-09-24T18:54:29.726Z,14.16
2022-09-24T18:57:05.211Z,14.18
2022-09-24T18:59:45.068Z,14.17
2022-09-24T19:02:18.725Z,14.15
2022-09-24T19:04:52.254Z,14.12
2022-09-24T19:07:25.991Z,14.09
2022-09-24T19:09:59.716Z,14.05
2022-09-24T19:12:33.992Z,14.00
2022-09-24T19:15:08.322Z,13.97
2022-09-24T19:17:41.754Z,13.93
2022-09-24T19:20:15.391Z,13.89
2022-09-24T19:22:50.368Z,13.84
2022-09-24T19:25:24.971Z,13.80
2022-09-24T19:27:58.296Z,13.75
2022-09-24T19:30:32.179Z,13.70
2022-09-24T19:33:06.146Z,13.66
2022-09-24T19:35:40.124Z,13.62
2022-09-24T19:38:17.262Z,13.60
2022-09-24T19:40:59.543Z,13.59
2022-09-24T19:43:34.599Z,13.61
2022-09-24T19:46:12.846Z,13.58
2022-09-24T19:48:47.568Z,13.56
2022-09-24T19:51:22.957Z,13.55
2022-09-24T19:54:00.933Z,13.51
2022-09-24T19:56:38.457Z,13.48
2022-09-24T19:59:13.676Z,13.45
2022-09-24T20:01:47.931Z,13.42
2022-09-24T20:04:21.865Z,13.38
2022-09-24T20:07:00.185Z,13.33
2022-09-24T20:09:37.357Z,13.30
2022-09-24T20:12:17.471Z,13.27
2022-09-24T20:14:51.534Z,13.22
2022-09-24T20:17:25.079Z,13.20
2022-09-24T20:20:01.448Z,13.20
2022-09-24T20:22:37.869Z,13.19
2022-09-24T20:25:13.939Z,13.17
2022-09-24T20:27:55.649Z,13.17
2022-09-24T20:30:29.385Z,13.16
2022-09-24T20:33:03.222Z,13.16
2022-09-24T20:35:36.811Z,13.15
2022-09-24T20:38:10.804Z,13.14
2022-09-24T20:40:44.469Z,13.13
2022-09-24T20:43:18.793Z,13.11
2022-09-24T20:45:53.174Z,13.08
2022-09-24T20:48:26.678Z,13.05
2022-09-24T20:51:00.161Z,13.03
2022-09-24T20:53:54.962Z,13.01
2022-09-24T20:56:30.939Z,13.01
2022-09-24T20:59:06.949Z,13.03
2022-09-24T21:01:41.953Z,13.07
2022-09-24T21:04:15.528Z,13.11
2022-09-24T21:06:49.457Z,13.15
2022-09-24T21:09:23.577Z,13.16
2022-09-24T21:11:59.625Z,13.18
2022-09-24T21:14:36.076Z,13.17
2022-09-24T21:17:10.826Z,13.16
2022-09-24T21:19:44.079Z,13.13
2022-09-24T21:22:17.473Z,13.11
2022-09-24T21:24:51.635Z,13.09
2022-09-24T21:27:25.357Z,13.06
2022-09-24T21:29:58.709Z,13.02
2022-09-24T21:32:32.042Z,12.99
2022-09-24T21:35:07.136Z,12.98
2022-09-24T21:37:40.417Z,12.98
2022-09-24T21:40:15.285Z,12.99
2022-09-24T21:42:50.313Z,12.99
2022-09-24T21:45:23.718Z,12.99
2022-09-24T21:47:57.472Z,12.96
2022-09-24T21:50:34.722Z,12.93
2022-09-24T21:53:10.389Z,12.89
2022-09-24T21:55:43.737Z,12.84
2022-09-24T21:58:17.616Z,12.78
2022-09-24T22:00:50.968Z,12.72
2022-09-24T22:03:24.747Z,12.67
2022-09-24T22:06:00.627Z,12.61
2022-09-24T22:08:34.150Z,12.57
2022-09-24T22:11:12.346Z,12.54
2022-09-24T22:13:47.891Z,12.55
2022-09-24T22:16:23.195Z,12.55
2022-09-24T22:18:57.065Z,12.55
2022-09-24T22:21:31.710Z,12.53
2022-09-24T22:24:06.167Z,12.52
2022-09-24T22:26:40.030Z,12.50
2022-09-24T22:29:14.010Z,12.49
2022-09-24T22:31:47.706Z,12.47
2022-09-24T22:34:38.850Z,12.47
2022-09-24T22:37:12.381Z,12.47
2022-09-24T22:39:46.030Z,12.45
2022-09-24T22:42:19.501Z,12.44
2022-09-24T22:44:53.071Z,12.43
2022-09-24T22:47:26.391Z,12.41
2022-09-24T22:49:59.714Z,12.41
2022-09-24T22:52:33.143Z,12.43
2022-09-24T22:55:18.512Z,12.44
2022-09-24T22:58:02.015Z,12.46
2022-09-24T23:00:38.079Z,12.48
2022-09-24T23:03:12.006Z,12.50
2022-09-24T23:05:46.311Z,12.51
2022-09-24T23:08:19.947Z,12.50
2022-09-24T23:10:53.254Z,12.47
2022-09-24T23:13:27.301Z,12.46
2022-09-24T23:16:10.706Z,12.46
2022-09-24T23:18:46.105Z,12.44
2022-09-24T23:21:20.952Z,12.41
2022-09-24T23:23:58.590Z,12.40
2022-09-24T23:26:45.343Z,12.40
2022-09-24T23:29:18.960Z,12.41
2022-09-24T23:31:52.383Z,12.41
2022-09-24T23:34:25.700Z,12.40
2022-09-24T23:36:59.503Z,12.38
2022-09-24T23:39:33.013Z,12.35
2022-09-24T23:42:06.666Z,12.31
2022-09-24T23:44:40.259Z,12.26
2022-09-24T23:47:13.836Z,12.24
2022-09-24T23:49:47.264Z,12.20
2022-09-24T23:52:20.625Z,12.16
2022-09-24T23:54:53.983Z,12.13
2022-09-24T23:57:27.421Z,12.10
